sensor_id;sensor_type;location;lat;lon;timestamp;temperature;humidity
65038;DHT22;51605;47.040;15.294;2023-07-24T00:02:23;24.60;53.30
65038;DHT22;51605;47.040;15.294;2023-07-24T00:04:49;24.70;53.30
65038;DHT22;51605;47.040;15.294;2023-07-24T00:07:14;24.60;53.40
65038;DHT22;51605;47.040;15.294;2023-07-24T00:09:40;24.60;53.40
65038;DHT22;51605;47.040;15.294;2023-07-24T00:12:05;24.70;53.30
65038;DHT22;51605;47.040;15.294;2023-07-24T00:14:31;24.60;53.30
65038;DHT22;51605;47.040;15.294;2023-07-24T00:16:56;24.70;53.40
65038;DHT22;51605;47.040;15.294;2023-07-24T00:19:22;24.60;53.30
65038;DHT22;51605;47.040;15.294;2023-07-24T00:21:47;24.70;53.30
65038;DHT22;51605;47.040;15.294;2023-07-24T00:24:13;24.70;53.30
65038;DHT22;51605;47.040;15.294;2023-07-24T00:26:38;24.60;53.30
65038;DHT22;51605;47.040;15.294;2023-07-24T00:29:04;24.70;53.30
65038;DHT22;51605;47.040;15.294;2023-07-24T00:31:29;24.60;53.30
65038;DHT22;51605;47.040;15.294;2023-07-24T00:33:55;24.70;53.40
65038;DHT22;51605;47.040;15.294;2023-07-24T00:36:20;24.70;53.30
65038;DHT22;51605;47.040;15.294;2023-07-24T00:38:46;24.70;53.30
65038;DHT22;51605;47.040;15.294;2023-07-24T00:41:11;24.60;53.30
65038;DHT22;51605;47.040;15.294;2023-07-24T00:43:37;24.70;53.30
65038;DHT22;51605;47.040;15.294;2023-07-24T00:46:03;24.70;53.30
65038;DHT22;51605;47.040;15.294;2023-07-24T00:48:28;24.70;53.30
65038;DHT22;51605;47.040;15.294;2023-07-24T00:50:54;24.60;53.30
65038;DHT22;51605;47.040;15.294;2023-07-24T00:53:20;24.60;53.30
65038;DHT22;51605;47.040;15.294;2023-07-24T00:55:46;24.70;53.30
65038;DHT22;51605;47.040;15.294;2023-07-24T00:58:12;24.60;53.30
65038;DHT22;51605;47.040;15.294;2023-07-24T01:00:38;24.70;53.30
65038;DHT22;51605;47.040;15.294;2023-07-24T01:03:03;24.70;53.30
65038;DHT22;51605;47.040;15.294;2023-07-24T01:05:29;24.60;53.30
65038;DHT22;51605;47.040;15.294;2023-07-24T01:07:55;24.60;53.30
65038;DHT22;51605;47.040;15.294;2023-07-24T01:10:20;24.70;53.20
65038;DHT22;51605;47.040;15.294;2023-07-24T01:12:59;24.70;53.20
65038;DHT22;51605;47.040;15.294;2023-07-24T01:15:36;24.60;53.20
65038;DHT22;51605;47.040;15.294;2023-07-24T01:18:05;24.60;53.30
65038;DHT22;51605;47.040;15.294;2023-07-24T01:20:31;24.60;53.30
65038;DHT22;51605;47.040;15.294;2023-07-24T01:23:08;24.60;53.30
65038;DHT22;51605;47.040;15.294;2023-07-24T01:26:21;24.60;53.30
65038;DHT22;51605;47.040;15.294;2023-07-24T01:28:28;24.60;53.30
65038;DHT22;51605;47.040;15.294;2023-07-24T01:30:53;24.60;53.30
65038;DHT22;51605;47.040;15.294;2023-07-24T01:33:19;24.60;53.20
65038;DHT22;51605;47.040;15.294;2023-07-24T01:35:45;24.60;53.30
65038;DHT22;51605;47.040;15.294;2023-07-24T01:38:15;24.60;53.20
65038;DHT22;51605;47.040;15.294;2023-07-24T01:40:41;24.60;53.20
65038;DHT22;51605;47.040;15.294;2023-07-24T01:43:07;24.60;53.20
65038;DHT22;51605;47.040;15.294;2023-07-24T01:45:32;24.60;53.30
65038;DHT22;51605;47.040;15.294;2023-07-24T01:47:59;24.60;53.20
65038;DHT22;51605;47.040;15.294;2023-07-24T01:50:24;24.60;53.30
65038;DHT22;51605;47.040;15.294;2023-07-24T01:52:50;24.60;53.30
65038;DHT22;51605;47.040;15.294;2023-07-24T01:55:16;24.60;53.30
65038;DHT22;51605;47.040;15.294;2023-07-24T01:57:41;24.60;53.30
65038;DHT22;51605;47.040;15.294;2023-07-24T02:00:07;24.60;53.30
65038;DHT22;51605;47.040;15.294;2023-07-24T02:02:32;24.60;53.20
65038;DHT22;51605;47.040;15.294;2023-07-24T02:04:58;24.60;53.30
65038;DHT22;51605;47.040;15.294;2023-07-24T02:07:23;24.60;53.30
65038;DHT22;51605;47.040;15.294;2023-07-24T02:09:49;24.60;53.20
65038;DHT22;51605;47.040;15.294;2023-07-24T02:12:15;24.60;53.20
65038;DHT22;51605;47.040;15.294;2023-07-24T02:14:40;24.60;53.20
65038;DHT22;51605;47.040;15.294;2023-07-24T02:17:06;24.60;53.30
65038;DHT22;51605;47.040;15.294;2023-07-24T02:19:31;24.60;53.30
65038;DHT22;51605;47.040;15.294;2023-07-24T02:21:57;24.60;53.30
65038;DHT22;51605;47.040;15.294;2023-07-24T02:24:22;24.60;53.30
65038;DHT22;51605;47.040;15.294;2023-07-24T02:26:48;24.60;53.30
65038;DHT22;51605;47.040;15.294;2023-07-24T02:29:13;24.60;53.30
65038;DHT22;51605;47.040;15.294;2023-07-24T02:31:39;24.60;53.30
65038;DHT22;51605;47.040;15.294;2023-07-24T02:34:04;24.60;53.40
65038;DHT22;51605;47.040;15.294;2023-07-24T02:36:30;24.60;53.30
65038;DHT22;51605;47.040;15.294;2023-07-24T02:38:56;24.60;53.30
65038;DHT22;51605;47.040;15.294;2023-07-24T02:41:21;24.60;53.30
65038;DHT22;51605;47.040;15.294;2023-07-24T02:43:47;24.60;53.30
65038;DHT22;51605;47.040;15.294;2023-07-24T02:46:12;24.60;53.30
65038;DHT22;51605;47.040;15.294;2023-07-24T02:48:38;24.60;53.20
65038;DHT22;51605;47.040;15.294;2023-07-24T02:51:03;24.60;53.20
65038;DHT22;51605;47.040;15.294;2023-07-24T02:53:29;24.60;53.30
65038;DHT22;51605;47.040;15.294;2023-07-24T02:55:54;24.60;53.20
65038;DHT22;51605;47.040;15.294;2023-07-24T02:58:21;24.60;53.20
65038;DHT22;51605;47.040;15.294;2023-07-24T03:00:46;24.60;53.20
65038;DHT22;51605;47.040;15.294;2023-07-24T03:03:12;24.60;53.20
65038;DHT22;51605;47.040;15.294;2023-07-24T03:05:37;24.60;53.20
65038;DHT22;51605;47.040;15.294;2023-07-24T03:08:03;24.60;53.20
65038;DHT22;51605;47.040;15.294;2023-07-24T03:10:28;24.60;53.20
65038;DHT22;51605;47.040;15.294;2023-07-24T03:12:54;24.60;53.30
65038;DHT22;51605;47.040;15.294;2023-07-24T03:15:19;24.60;53.20
65038;DHT22;51605;47.040;15.294;2023-07-24T03:17:45;24.60;53.20
65038;DHT22;51605;47.040;15.294;2023-07-24T03:20:14;24.60;53.30
65038;DHT22;51605;47.040;15.294;2023-07-24T03:22:40;24.60;53.30
65038;DHT22;51605;47.040;15.294;2023-07-24T03:25:06;24.60;53.30
65038;DHT22;51605;47.040;15.294;2023-07-24T03:27:32;24.60;53.30
65038;DHT22;51605;47.040;15.294;2023-07-24T03:29:57;24.60;53.20
65038;DHT22;51605;47.040;15.294;2023-07-24T03:32:23;24.60;53.30
65038;DHT22;51605;47.040;15.294;2023-07-24T03:34:48;24.60;53.30
65038;DHT22;51605;47.040;15.294;2023-07-24T03:37:14;24.60;53.30
65038;DHT22;51605;47.040;15.294;2023-07-24T03:39:39;24.60;53.30
65038;DHT22;51605;47.040;15.294;2023-07-24T03:42:05;24.60;53.30
65038;DHT22;51605;47.040;15.294;2023-07-24T03:44:30;24.60;53.30
65038;DHT22;51605;47.040;15.294;2023-07-24T03:46:56;24.60;53.20
65038;DHT22;51605;47.040;15.294;2023-07-24T03:49:23;24.60;53.30
65038;DHT22;51605;47.040;15.294;2023-07-24T03:51:48;24.60;53.30
65038;DHT22;51605;47.040;15.294;2023-07-24T03:54:14;24.60;53.30
65038;DHT22;51605;47.040;15.294;2023-07-24T03:56:39;24.60;53.30
65038;DHT22;51605;47.040;15.294;2023-07-24T03:59:05;24.60;53.20
65038;DHT22;51605;47.040;15.294;2023-07-24T04:01:31;24.60;53.20
65038;DHT22;51605;47.040;15.294;2023-07-24T04:03:57;24.60;53.20
65038;DHT22;51605;47.040;15.294;2023-07-24T04:06:23;24.60;53.20
65038;DHT22;51605;47.040;15.294;2023-07-24T04:08:48;24.60;53.20
65038;DHT22;51605;47.040;15.294;2023-07-24T04:11:14;24.60;53.20
65038;DHT22;51605;47.040;15.294;2023-07-24T04:13:39;24.60;53.30
65038;DHT22;51605;47.040;15.294;2023-07-24T04:16:05;24.60;53.20
65038;DHT22;51605;47.040;15.294;2023-07-24T04:18:30;24.60;53.20
65038;DHT22;51605;47.040;15.294;2023-07-24T04:20:56;24.60;53.20
65038;DHT22;51605;47.040;15.294;2023-07-24T04:23:22;24.60;53.20
65038;DHT22;51605;47.040;15.294;2023-07-24T04:25:49;24.60;54.20
65038;DHT22;51605;47.040;15.294;2023-07-24T04:28:14;24.60;53.30
65038;DHT22;51605;47.040;15.294;2023-07-24T04:30:40;24.60;53.20
65038;DHT22;51605;47.040;15.294;2023-07-24T04:33:05;24.60;53.30
65038;DHT22;51605;47.040;15.294;2023-07-24T04:35:31;24.60;53.30
65038;DHT22;51605;47.040;15.294;2023-07-24T04:37:56;24.60;53.20
65038;DHT22;51605;47.040;15.294;2023-07-24T04:40:23;24.60;53.20
65038;DHT22;51605;47.040;15.294;2023-07-24T04:42:48;24.60;53.20
65038;DHT22;51605;47.040;15.294;2023-07-24T04:45:14;24.60;53.20
65038;DHT22;51605;47.040;15.294;2023-07-24T04:47:39;24.60;53.20
65038;DHT22;51605;47.040;15.294;2023-07-24T04:50:05;24.60;53.20
65038;DHT22;51605;47.040;15.294;2023-07-24T04:52:31;24.60;53.20
65038;DHT22;51605;47.040;15.294;2023-07-24T04:54:56;24.60;53.20
65038;DHT22;51605;47.040;15.294;2023-07-24T04:57:22;24.60;53.30
65038;DHT22;51605;47.040;15.294;2023-07-24T04:59:47;24.60;53.20
65038;DHT22;51605;47.040;15.294;2023-07-24T05:02:13;24.60;53.20
65038;DHT22;51605;47.040;15.294;2023-07-24T05:04:38;24.60;53.30
65038;DHT22;51605;47.040;15.294;2023-07-24T05:07:04;24.60;53.20
65038;DHT22;51605;47.040;15.294;2023-07-24T05:09:30;24.60;53.30
65038;DHT22;51605;47.040;15.294;2023-07-24T05:11:55;24.60;53.20
65038;DHT22;51605;47.040;15.294;2023-07-24T05:14:21;24.60;53.30
65038;DHT22;51605;47.040;15.294;2023-07-24T05:16:46;24.60;53.20
65038;DHT22;51605;47.040;15.294;2023-07-24T05:19:12;24.60;53.30
65038;DHT22;51605;47.040;15.294;2023-07-24T05:21:37;24.60;53.20
65038;DHT22;51605;47.040;15.294;2023-07-24T05:24:03;24.60;53.20
65038;DHT22;51605;47.040;15.294;2023-07-24T05:26:28;24.60;53.20
65038;DHT22;51605;47.040;15.294;2023-07-24T05:28:53;24.60;53.20
65038;DHT22;51605;47.040;15.294;2023-07-24T05:31:19;24.60;53.20
65038;DHT22;51605;47.040;15.294;2023-07-24T05:33:45;24.60;53.20
65038;DHT22;51605;47.040;15.294;2023-07-24T05:36:11;24.60;53.20
65038;DHT22;51605;47.040;15.294;2023-07-24T05:38:36;24.60;53.20
65038;DHT22;51605;47.040;15.294;2023-07-24T05:41:02;24.60;53.20
65038;DHT22;51605;47.040;15.294;2023-07-24T05:43:28;24.60;53.20
65038;DHT22;51605;47.040;15.294;2023-07-24T05:45:55;24.60;53.10
65038;DHT22;51605;47.040;15.294;2023-07-24T05:48:21;24.60;53.20
65038;DHT22;51605;47.040;15.294;2023-07-24T05:50:47;24.60;53.20
65038;DHT22;51605;47.040;15.294;2023-07-24T05:53:13;24.60;53.10
65038;DHT22;51605;47.040;15.294;2023-07-24T05:55:39;24.60;53.20
65038;DHT22;51605;47.040;15.294;2023-07-24T05:58:04;24.60;53.20
65038;DHT22;51605;47.040;15.294;2023-07-24T06:00:30;24.60;53.20
65038;DHT22;51605;47.040;15.294;2023-07-24T06:02:55;24.60;53.10
65038;DHT22;51605;47.040;15.294;2023-07-24T06:05:21;24.60;53.20
65038;DHT22;51605;47.040;15.294;2023-07-24T06:07:46;24.60;53.10
65038;DHT22;51605;47.040;15.294;2023-07-24T06:10:12;24.60;53.10
65038;DHT22;51605;47.040;15.294;2023-07-24T06:12:38;24.60;53.10
65038;DHT22;51605;47.040;15.294;2023-07-24T06:15:03;24.60;53.10
65038;DHT22;51605;47.040;15.294;2023-07-24T06:17:30;24.60;53.00
65038;DHT22;51605;47.040;15.294;2023-07-24T06:19:55;24.60;53.00
65038;DHT22;51605;47.040;15.294;2023-07-24T06:22:21;24.60;53.00
65038;DHT22;51605;47.040;15.294;2023-07-24T06:24:46;24.60;53.00
65038;DHT22;51605;47.040;15.294;2023-07-24T06:27:12;24.60;53.00
65038;DHT22;51605;47.040;15.294;2023-07-24T06:29:37;24.60;53.70
65038;DHT22;51605;47.040;15.294;2023-07-24T06:32:04;24.60;53.80
65038;DHT22;51605;47.040;15.294;2023-07-24T06:34:29;24.60;53.70
65038;DHT22;51605;47.040;15.294;2023-07-24T06:36:55;24.60;53.50
65038;DHT22;51605;47.040;15.294;2023-07-24T06:39:20;24.60;53.50
65038;DHT22;51605;47.040;15.294;2023-07-24T06:41:46;24.60;53.40
65038;DHT22;51605;47.040;15.294;2023-07-24T06:44:11;24.60;53.40
65038;DHT22;51605;47.040;15.294;2023-07-24T06:46:37;24.60;53.50
65038;DHT22;51605;47.040;15.294;2023-07-24T06:49:03;24.60;53.40
65038;DHT22;51605;47.040;15.294;2023-07-24T06:51:28;24.60;53.40
65038;DHT22;51605;47.040;15.294;2023-07-24T06:53:54;24.60;53.40
65038;DHT22;51605;47.040;15.294;2023-07-24T06:56:19;24.60;53.40
65038;DHT22;51605;47.040;15.294;2023-07-24T06:58:45;24.60;53.40
65038;DHT22;51605;47.040;15.294;2023-07-24T07:01:10;24.60;53.30
65038;DHT22;51605;47.040;15.294;2023-07-24T07:03:36;24.60;53.30
65038;DHT22;51605;47.040;15.294;2023-07-24T07:06:02;24.60;53.30
65038;DHT22;51605;47.040;15.294;2023-07-24T07:08:28;24.60;53.40
65038;DHT22;51605;47.040;15.294;2023-07-24T07:11:03;24.60;53.40
65038;DHT22;51605;47.040;15.294;2023-07-24T07:13:29;24.60;53.30
65038;DHT22;51605;47.040;15.294;2023-07-24T07:15:54;24.60;53.30
65038;DHT22;51605;47.040;15.294;2023-07-24T07:18:20;24.60;53.30
65038;DHT22;51605;47.040;15.294;2023-07-24T07:20:46;24.60;53.30
65038;DHT22;51605;47.040;15.294;2023-07-24T07:23:11;24.60;53.30
65038;DHT22;51605;47.040;15.294;2023-07-24T07:25:37;24.60;53.30
65038;DHT22;51605;47.040;15.294;2023-07-24T07:28:03;24.60;53.20
65038;DHT22;51605;47.040;15.294;2023-07-24T07:30:28;24.60;53.30
65038;DHT22;51605;47.040;15.294;2023-07-24T07:32:54;24.60;53.40
65038;DHT22;51605;47.040;15.294;2023-07-24T07:35:19;24.60;53.30
65038;DHT22;51605;47.040;15.294;2023-07-24T07:37:45;24.60;53.40
65038;DHT22;51605;47.040;15.294;2023-07-24T07:40:10;24.60;53.40
65038;DHT22;51605;47.040;15.294;2023-07-24T07:42:36;24.60;53.40
65038;DHT22;51605;47.040;15.294;2023-07-24T07:45:01;24.60;53.40
65038;DHT22;51605;47.040;15.294;2023-07-24T07:47:27;24.60;53.60
65038;DHT22;51605;47.040;15.294;2023-07-24T07:49:52;24.60;53.40
65038;DHT22;51605;47.040;15.294;2023-07-24T07:52:18;24.60;53.40
65038;DHT22;51605;47.040;15.294;2023-07-24T07:54:47;24.60;53.40
65038;DHT22;51605;47.040;15.294;2023-07-24T07:57:12;24.60;53.40
65038;DHT22;51605;47.040;15.294;2023-07-24T07:59:38;24.60;53.40
65038;DHT22;51605;47.040;15.294;2023-07-24T08:02:04;24.60;53.40
65038;DHT22;51605;47.040;15.294;2023-07-24T08:04:30;24.60;53.70
65038;DHT22;51605;47.040;15.294;2023-07-24T08:06:56;24.60;54.40
65038;DHT22;51605;47.040;15.294;2023-07-24T08:09:21;24.60;54.30
65038;DHT22;51605;47.040;15.294;2023-07-24T08:11:49;24.60;53.80
65038;DHT22;51605;47.040;15.294;2023-07-24T08:14:15;24.60;53.70
65038;DHT22;51605;47.040;15.294;2023-07-24T08:16:40;24.60;54.60
65038;DHT22;51605;47.040;15.294;2023-07-24T08:19:06;24.60;53.60
65038;DHT22;51605;47.040;15.294;2023-07-24T08:21:31;24.60;53.50
65038;DHT22;51605;47.040;15.294;2023-07-24T08:23:58;24.60;53.60
65038;DHT22;51605;47.040;15.294;2023-07-24T08:26:25;24.60;53.50
65038;DHT22;51605;47.040;15.294;2023-07-24T08:28:51;24.60;53.50
65038;DHT22;51605;47.040;15.294;2023-07-24T08:31:17;24.60;53.50
65038;DHT22;51605;47.040;15.294;2023-07-24T08:33:43;24.60;53.50
65038;DHT22;51605;47.040;15.294;2023-07-24T08:36:09;24.60;53.50
65038;DHT22;51605;47.040;15.294;2023-07-24T08:38:36;24.60;53.50
65038;DHT22;51605;47.040;15.294;2023-07-24T08:41:05;24.60;53.50
65038;DHT22;51605;47.040;15.294;2023-07-24T08:43:32;24.60;53.50
65038;DHT22;51605;47.040;15.294;2023-07-24T08:45:58;24.60;53.60
65038;DHT22;51605;47.040;15.294;2023-07-24T08:48:24;24.60;53.50
65038;DHT22;51605;47.040;15.294;2023-07-24T08:50:50;24.60;53.50
65038;DHT22;51605;47.040;15.294;2023-07-24T08:53:18;24.60;53.50
65038;DHT22;51605;47.040;15.294;2023-07-24T08:55:44;24.60;53.50
65038;DHT22;51605;47.040;15.294;2023-07-24T08:58:11;24.60;53.50
65038;DHT22;51605;47.040;15.294;2023-07-24T09:00:37;24.50;53.40
65038;DHT22;51605;47.040;15.294;2023-07-24T09:03:03;24.50;53.50
65038;DHT22;51605;47.040;15.294;2023-07-24T09:05:29;24.60;53.40
65038;DHT22;51605;47.040;15.294;2023-07-24T09:07:55;24.60;53.50
65038;DHT22;51605;47.040;15.294;2023-07-24T09:10:26;24.60;53.50
65038;DHT22;51605;47.040;15.294;2023-07-24T09:12:52;24.50;53.40
65038;DHT22;51605;47.040;15.294;2023-07-24T09:15:17;24.50;53.40
65038;DHT22;51605;47.040;15.294;2023-07-24T09:17:52;24.50;53.40
65038;DHT22;51605;47.040;15.294;2023-07-24T09:20:18;24.60;53.40
65038;DHT22;51605;47.040;15.294;2023-07-24T09:22:52;24.60;53.50
65038;DHT22;51605;47.040;15.294;2023-07-24T09:25:29;24.60;53.40
65038;DHT22;51605;47.040;15.294;2023-07-24T09:27:54;24.60;53.40
65038;DHT22;51605;47.040;15.294;2023-07-24T09:30:20;24.60;53.40
65038;DHT22;51605;47.040;15.294;2023-07-24T09:32:54;24.60;53.40
65038;DHT22;51605;47.040;15.294;2023-07-24T09:35:20;24.60;53.40
65038;DHT22;51605;47.040;15.294;2023-07-24T09:37:47;24.60;53.40
65038;DHT22;51605;47.040;15.294;2023-07-24T09:40:14;24.50;53.30
65038;DHT22;51605;47.040;15.294;2023-07-24T09:42:39;24.60;53.40
65038;DHT22;51605;47.040;15.294;2023-07-24T09:45:08;24.50;53.40
65038;DHT22;51605;47.040;15.294;2023-07-24T09:47:34;24.60;53.40
65038;DHT22;51605;47.040;15.294;2023-07-24T09:50:02;24.60;53.30
65038;DHT22;51605;47.040;15.294;2023-07-24T09:52:28;24.50;53.30
65038;DHT22;51605;47.040;15.294;2023-07-24T09:54:55;24.60;53.40
65038;DHT22;51605;47.040;15.294;2023-07-24T09:57:24;24.60;53.40
65038;DHT22;51605;47.040;15.294;2023-07-24T09:59:50;24.60;53.40
65038;DHT22;51605;47.040;15.294;2023-07-24T10:02:17;24.60;53.30
65038;DHT22;51605;47.040;15.294;2023-07-24T10:04:42;24.60;53.30
65038;DHT22;51605;47.040;15.294;2023-07-24T10:07:09;24.60;53.30
65038;DHT22;51605;47.040;15.294;2023-07-24T10:09:34;24.60;53.40
65038;DHT22;51605;47.040;15.294;2023-07-24T10:12:02;24.50;53.30
65038;DHT22;51605;47.040;15.294;2023-07-24T10:14:28;24.60;53.30
65038;DHT22;51605;47.040;15.294;2023-07-24T10:16:55;24.60;53.30
65038;DHT22;51605;47.040;15.294;2023-07-24T10:19:21;24.60;53.30
65038;DHT22;51605;47.040;15.294;2023-07-24T10:21:49;24.60;53.30
65038;DHT22;51605;47.040;15.294;2023-07-24T10:24:16;24.50;53.20
65038;DHT22;51605;47.040;15.294;2023-07-24T10:26:41;24.50;53.30
65038;DHT22;51605;47.040;15.294;2023-07-24T10:29:08;24.60;53.40
65038;DHT22;51605;47.040;15.294;2023-07-24T10:31:34;24.60;53.30
65038;DHT22;51605;47.040;15.294;2023-07-24T10:34:05;24.60;53.30
65038;DHT22;51605;47.040;15.294;2023-07-24T10:36:34;24.50;53.20
65038;DHT22;51605;47.040;15.294;2023-07-24T10:39:00;24.60;53.30
65038;DHT22;51605;47.040;15.294;2023-07-24T10:41:36;24.60;53.30
65038;DHT22;51605;47.040;15.294;2023-07-24T10:44:02;24.60;53.30
65038;DHT22;51605;47.040;15.294;2023-07-24T10:46:38;24.60;53.30
65038;DHT22;51605;47.040;15.294;2023-07-24T10:49:04;24.50;53.20
65038;DHT22;51605;47.040;15.294;2023-07-24T10:51:30;24.50;53.20
65038;DHT22;51605;47.040;15.294;2023-07-24T10:53:59;24.60;53.30
65038;DHT22;51605;47.040;15.294;2023-07-24T10:56:24;24.60;53.30
65038;DHT22;51605;47.040;15.294;2023-07-24T10:58:50;24.60;53.30
65038;DHT22;51605;47.040;15.294;2023-07-24T11:01:17;24.60;53.30
65038;DHT22;51605;47.040;15.294;2023-07-24T11:03:42;24.60;53.30
65038;DHT22;51605;47.040;15.294;2023-07-24T11:06:12;24.50;53.20
65038;DHT22;51605;47.040;15.294;2023-07-24T11:08:38;24.60;53.30
65038;DHT22;51605;47.040;15.294;2023-07-24T11:11:05;24.60;53.20
65038;DHT22;51605;47.040;15.294;2023-07-24T11:13:31;24.50;53.20
65038;DHT22;51605;47.040;15.294;2023-07-24T11:15:57;24.50;53.20
65038;DHT22;51605;47.040;15.294;2023-07-24T11:18:29;24.60;53.20
65038;DHT22;51605;47.040;15.294;2023-07-24T11:20:55;24.60;53.30
65038;DHT22;51605;47.040;15.294;2023-07-24T11:23:21;24.60;53.20
65038;DHT22;51605;47.040;15.294;2023-07-24T11:25:47;24.60;53.20
65038;DHT22;51605;47.040;15.294;2023-07-24T11:28:14;24.60;53.20
65038;DHT22;51605;47.040;15.294;2023-07-24T11:30:40;24.60;53.20
65038;DHT22;51605;47.040;15.294;2023-07-24T11:33:07;24.60;53.20
65038;DHT22;51605;47.040;15.294;2023-07-24T11:35:33;24.60;53.20
65038;DHT22;51605;47.040;15.294;2023-07-24T11:38:00;24.60;53.20
65038;DHT22;51605;47.040;15.294;2023-07-24T11:40:39;24.60;53.30
65038;DHT22;51605;47.040;15.294;2023-07-24T11:43:05;24.60;53.30
65038;DHT22;51605;47.040;15.294;2023-07-24T11:45:30;24.60;53.30
65038;DHT22;51605;47.040;15.294;2023-07-24T11:47:56;24.60;53.20
65038;DHT22;51605;47.040;15.294;2023-07-24T11:50:22;24.60;53.20
65038;DHT22;51605;47.040;15.294;2023-07-24T11:52:49;24.60;53.20
65038;DHT22;51605;47.040;15.294;2023-07-24T11:55:18;24.50;53.20
65038;DHT22;51605;47.040;15.294;2023-07-24T11:57:57;24.50;53.20
65038;DHT22;51605;47.040;15.294;2023-07-24T12:00:22;24.60;53.30
65038;DHT22;51605;47.040;15.294;2023-07-24T12:02:48;24.60;53.20
65038;DHT22;51605;47.040;15.294;2023-07-24T12:05:14;24.60;53.20
65038;DHT22;51605;47.040;15.294;2023-07-24T12:07:39;24.60;53.20
65038;DHT22;51605;47.040;15.294;2023-07-24T12:10:08;24.60;53.20
65038;DHT22;51605;47.040;15.294;2023-07-24T12:12:40;24.60;53.10
65038;DHT22;51605;47.040;15.294;2023-07-24T12:15:06;24.60;53.10
65038;DHT22;51605;47.040;15.294;2023-07-24T12:17:31;24.60;53.10
65038;DHT22;51605;47.040;15.294;2023-07-24T12:19:57;24.60;53.20
65038;DHT22;51605;47.040;15.294;2023-07-24T12:22:22;24.60;53.20
65038;DHT22;51605;47.040;15.294;2023-07-24T12:24:48;24.60;53.20
65038;DHT22;51605;47.040;15.294;2023-07-24T12:27:13;24.60;53.20
65038;DHT22;51605;47.040;15.294;2023-07-24T12:29:39;24.60;53.20
65038;DHT22;51605;47.040;15.294;2023-07-24T12:32:04;24.60;53.20
65038;DHT22;51605;47.040;15.294;2023-07-24T12:34:30;24.60;53.10
65038;DHT22;51605;47.040;15.294;2023-07-24T12:36:56;24.60;53.20
65038;DHT22;51605;47.040;15.294;2023-07-24T12:39:21;24.60;53.20
65038;DHT22;51605;47.040;15.294;2023-07-24T12:41:47;24.50;53.10
65038;DHT22;51605;47.040;15.294;2023-07-24T12:44:12;24.50;53.10
65038;DHT22;51605;47.040;15.294;2023-07-24T12:46:38;24.60;53.10
65038;DHT22;51605;47.040;15.294;2023-07-24T12:49:03;24.50;53.10
65038;DHT22;51605;47.040;15.294;2023-07-24T12:51:29;24.60;53.20
65038;DHT22;51605;47.040;15.294;2023-07-24T12:53:54;24.60;53.20
65038;DHT22;51605;47.040;15.294;2023-07-24T12:56:20;24.50;53.10
65038;DHT22;51605;47.040;15.294;2023-07-24T12:58:45;24.50;53.20
65038;DHT22;51605;47.040;15.294;2023-07-24T13:01:11;24.60;53.20
65038;DHT22;51605;47.040;15.294;2023-07-24T13:03:36;24.60;53.20
65038;DHT22;51605;47.040;15.294;2023-07-24T13:06:02;24.50;53.10
65038;DHT22;51605;47.040;15.294;2023-07-24T13:08:27;24.60;53.20
65038;DHT22;51605;47.040;15.294;2023-07-24T13:10:53;24.60;53.20
65038;DHT22;51605;47.040;15.294;2023-07-24T13:13:18;24.60;53.20
65038;DHT22;51605;47.040;15.294;2023-07-24T13:15:44;24.60;53.20
65038;DHT22;51605;47.040;15.294;2023-07-24T13:18:09;24.50;53.10
65038;DHT22;51605;47.040;15.294;2023-07-24T13:20:39;24.60;53.20
65038;DHT22;51605;47.040;15.294;2023-07-24T13:23:05;24.50;53.10
65038;DHT22;51605;47.040;15.294;2023-07-24T13:25:30;24.60;53.20
65038;DHT22;51605;47.040;15.294;2023-07-24T13:27:56;24.50;53.10
65038;DHT22;51605;47.040;15.294;2023-07-24T13:30:21;24.60;53.20
65038;DHT22;51605;47.040;15.294;2023-07-24T13:32:47;24.50;53.10
65038;DHT22;51605;47.040;15.294;2023-07-24T13:35:12;24.60;53.10
65038;DHT22;51605;47.040;15.294;2023-07-24T13:37:38;24.60;53.10
65038;DHT22;51605;47.040;15.294;2023-07-24T13:40:05;24.60;53.10
65038;DHT22;51605;47.040;15.294;2023-07-24T13:42:30;24.60;53.10
65038;DHT22;51605;47.040;15.294;2023-07-24T13:44:56;24.50;53.00
65038;DHT22;51605;47.040;15.294;2023-07-24T13:47:21;24.60;53.20
65038;DHT22;51605;47.040;15.294;2023-07-24T13:49:47;24.60;53.10
65038;DHT22;51605;47.040;15.294;2023-07-24T13:52:12;24.50;53.10
65038;DHT22;51605;47.040;15.294;2023-07-24T13:54:38;24.60;53.10
65038;DHT22;51605;47.040;15.294;2023-07-24T13:57:03;24.50;53.10
65038;DHT22;51605;47.040;15.294;2023-07-24T13:59:31;24.50;53.10
65038;DHT22;51605;47.040;15.294;2023-07-24T14:01:56;24.60;53.10
65038;DHT22;51605;47.040;15.294;2023-07-24T14:04:22;24.60;53.30
65038;DHT22;51605;47.040;15.294;2023-07-24T14:06:47;24.50;53.00
65038;DHT22;51605;47.040;15.294;2023-07-24T14:09:13;24.60;53.10
65038;DHT22;51605;47.040;15.294;2023-07-24T14:11:38;24.50;53.00
65038;DHT22;51605;47.040;15.294;2023-07-24T14:14:04;24.50;53.10
65038;DHT22;51605;47.040;15.294;2023-07-24T14:16:29;24.60;53.10
65038;DHT22;51605;47.040;15.294;2023-07-24T14:18:55;24.60;53.10
65038;DHT22;51605;47.040;15.294;2023-07-24T14:21:20;24.60;53.10
65038;DHT22;51605;47.040;15.294;2023-07-24T14:23:46;24.60;53.00
65038;DHT22;51605;47.040;15.294;2023-07-24T14:26:11;24.60;53.10
65038;DHT22;51605;47.040;15.294;2023-07-24T14:28:37;24.60;53.00
65038;DHT22;51605;47.040;15.294;2023-07-24T14:31:02;24.50;53.00
65038;DHT22;51605;47.040;15.294;2023-07-24T14:33:29;24.60;53.10
65038;DHT22;51605;47.040;15.294;2023-07-24T14:35:55;24.60;53.10
65038;DHT22;51605;47.040;15.294;2023-07-24T14:38:20;24.60;53.00
65038;DHT22;51605;47.040;15.294;2023-07-24T14:40:46;24.60;53.10
65038;DHT22;51605;47.040;15.294;2023-07-24T14:43:11;24.60;53.10
65038;DHT22;51605;47.040;15.294;2023-07-24T14:45:37;24.60;53.10
65038;DHT22;51605;47.040;15.294;2023-07-24T14:48:03;24.60;53.10
65038;DHT22;51605;47.040;15.294;2023-07-24T14:50:28;24.60;53.00
65038;DHT22;51605;47.040;15.294;2023-07-24T14:52:54;24.60;53.00
65038;DHT22;51605;47.040;15.294;2023-07-24T14:55:19;24.60;53.00
65038;DHT22;51605;47.040;15.294;2023-07-24T14:57:45;24.60;53.20
65038;DHT22;51605;47.040;15.294;2023-07-24T15:00:10;24.60;53.10
65038;DHT22;51605;47.040;15.294;2023-07-24T15:02:36;24.50;53.00
65038;DHT22;51605;47.040;15.294;2023-07-24T15:05:02;24.60;53.00
65038;DHT22;51605;47.040;15.294;2023-07-24T15:07:27;24.60;53.00
65038;DHT22;51605;47.040;15.294;2023-07-24T15:09:53;24.50;53.00